Time;durP1;ratioP1;P1;durP2;ratioP2;P2;SDS_P1;SDS_P2;PMS_P1;PMS_P2;Temp;Humidity;BMP_temperature;BMP_pressure;BME280_temperature;BME280_humidity;BME280_pressure;Samples;Min_cycle;Max_cycle;Signal;HPM_P1;HPM_P2
2022/09/07 00:01:28;;;;;;;4.78;4.00;;;;;;;16.12;55.45;100995.69;7406044;19;20362;-69
2022/09/07 00:04:00;;;;;;;7.13;3.90;;;;;;;16.09;55.48;100991.38;7407648;19;20019;-69
2022/09/07 00:06:35;;;;;;;5.70;3.90;;;;;;;16.07;55.67;100992.38;7405841;19;20006;-69
2022/09/07 00:09:05;;;;;;;8.55;3.95;;;;;;;16.03;55.94;100986.34;7407506;19;20082;-69
2022/09/07 00:11:34;;;;;;;6.13;3.85;;;;;;;16.00;55.95;100990.88;7399731;19;20026;-69
2022/09/07 00:14:02;;;;;;;5.63;3.50;;;;;;;15.96;56.07;100991.03;7400335;19;20046;-69
2022/09/07 00:16:32;;;;;;;6.93;3.88;;;;;;;15.92;56.03;100993.84;7400185;19;20018;-69
2022/09/07 00:19:06;;;;;;;4.97;3.40;;;;;;;15.88;56.07;100992.25;7399672;19;20547;-69
2022/09/07 00:21:34;;;;;;;6.10;4.30;;;;;;;15.84;56.44;100990.66;7398325;19;20041;-68
2022/09/07 00:24:03;;;;;;;4.57;3.75;;;;;;;15.79;56.42;100983.72;7399865;19;20029;-68
2022/09/07 00:26:35;;;;;;;5.50;4.10;;;;;;;15.75;56.54;100982.13;7400118;19;20034;-68
2022/09/07 00:29:06;;;;;;;5.68;4.07;;;;;;;15.72;56.68;100982.25;7400427;19;20423;-68
2022/09/07 00:31:35;;;;;;;4.85;3.55;;;;;;;15.71;56.79;100984.94;7397376;19;20015;-69
2022/09/07 00:34:07;;;;;;;6.20;4.32;;;;;;;15.65;56.86;100978.13;7400662;19;20014;-69
2022/09/07 00:36:37;;;;;;;4.68;3.70;;;;;;;15.62;57.05;100975.59;7399152;19;20028;-70
2022/09/07 00:39:07;;;;;;;5.13;3.70;;;;;;;15.57;57.14;100974.91;7397551;19;20014;-70
2022/09/07 00:41:36;;;;;;;4.25;3.85;;;;;;;15.53;57.46;100976.81;7397650;19;20041;-70
2022/09/07 00:44:34;;;;;;;5.18;3.67;;;;;;;15.46;57.49;100970.88;7399147;19;20037;-70
2022/09/07 00:47:03;;;;;;;5.35;3.80;;;;;;;15.45;57.38;100965.66;7398971;19;20011;-70
2022/09/07 00:49:35;;;;;;;5.53;4.15;;;;;;;15.41;57.49;100966.72;7397073;19;20037;-70
2022/09/07 00:52:06;;;;;;;5.55;4.07;;;;;;;15.36;57.70;100963.38;7397143;19;20019;-70
2022/09/07 00:54:41;;;;;;;5.70;4.05;;;;;;;15.34;58.03;100967.88;7399338;19;20037;-70
2022/09/07 00:57:10;;;;;;;5.45;3.65;;;;;;;15.29;57.98;100962.75;7401394;19;20015;-70
2022/09/07 00:59:41;;;;;;;7.97;4.50;;;;;;;15.24;57.99;100962.06;7397993;19;20041;-70
2022/09/07 01:02:11;;;;;;;8.55;4.70;;;;;;;15.20;58.16;100960.47;7398304;19;20014;-72
2022/09/07 01:04:42;;;;;;;4.90;4.40;;;;;;;15.15;58.23;100960.63;7396222;19;20010;-69
2022/09/07 01:07:11;;;;;;;7.40;4.43;;;;;;;15.13;58.38;100965.13;7396698;19;20010;-69
2022/09/07 01:09:41;;;;;;;6.30;3.92;;;;;;;15.09;58.23;100967.00;7398121;19;20485;-69
2022/09/07 01:12:11;;;;;;;8.00;4.47;;;;;;;15.06;58.34;100958.31;7395986;19;20362;-70
2022/09/07 01:14:45;;;;;;;5.30;4.40;;;;;;;15.04;58.61;100955.75;7396831;19;20038;-68
2022/09/07 01:17:24;;;;;;;5.72;3.95;;;;;;;14.99;58.65;100950.63;7399934;19;20022;-67
2022/09/07 01:20:29;;;;;;;7.10;4.45;;;;;;;14.95;58.66;100945.50;7398248;19;20394;-68
2022/09/07 01:23:22;;;;;;;5.32;4.35;;;;;;;14.91;58.97;100952.72;7395159;19;20015;-67
2022/09/07 01:26:08;;;;;;;5.85;4.72;;;;;;;14.87;58.92;100956.34;7396019;19;20014;-67
2022/09/07 01:28:41;;;;;;;6.07;3.97;;;;;;;14.84;58.86;100953.84;7395639;19;20010;-67
2022/09/07 01:31:19;;;;;;;6.60;4.43;;;;;;;14.78;59.17;100944.34;7397104;19;20019;-67
2022/09/07 01:33:59;;;;;;;7.10;3.92;;;;;;;14.74;59.40;100942.72;7397439;19;20010;-67
2022/09/07 01:36:35;;;;;;;6.03;4.13;;;;;;;14.70;59.33;100946.41;7397404;19;20018;-67
2022/09/07 01:39:06;;;;;;;5.32;4.00;;;;;;;14.66;59.28;100943.00;7398117;19;20010;-67
2022/09/07 01:41:44;;;;;;;6.55;4.60;;;;;;;14.62;59.36;100946.66;7395905;19;20014;-68
2022/09/07 01:44:22;;;;;;;6.50;4.18;;;;;;;14.62;59.49;100948.41;7397474;19;20033;-67
2022/09/07 01:46:54;;;;;;;5.60;4.72;;;;;;;14.60;59.53;100947.63;7397263;19;20086;-67
2022/09/07 01:49:27;;;;;;;6.20;4.20;;;;;;;14.58;59.53;100949.44;7395823;19;20113;-68
2022/09/07 01:52:00;;;;;;;5.45;3.85;;;;;;;14.55;59.46;100950.41;7394740;19;20512;-67
2022/09/07 01:54:35;;;;;;;5.93;3.60;;;;;;;14.53;59.53;100946.97;7397149;19;20037;-67
2022/09/07 01:57:07;;;;;;;7.72;4.05;;;;;;;14.51;59.67;100948.81;7397308;19;20038;-66
2022/09/07 01:59:42;;;;;;;5.60;4.07;;;;;;;14.48;59.81;100946.25;7397064;19;20037;-67
2022/09/07 02:02:15;;;;;;;5.93;4.15;;;;;;;14.46;59.92;100945.47;7395306;19;20049;-67
2022/09/07 02:04:49;;;;;;;4.78;3.72;;;;;;;14.44;59.78;100950.78;7396402;19;20021;-68
2022/09/07 02:07:19;;;;;;;;;;;;;;;14.44;59.79;100955.22;7396682;19;20011;-70
2022/09/07 02:09:53;;;;;;;5.15;3.75;;;;;;;14.40;59.71;100957.09;7396245;19;19919;-69
2022/09/07 02:12:26;;;;;;;5.45;3.55;;;;;;;14.38;59.84;100958.94;7394727;19;20018;-69
2022/09/07 02:15:02;;;;;;;5.65;3.65;;;;;;;14.33;59.88;100951.16;7396258;19;20046;-70
2022/09/07 02:17:35;;;;;;;4.65;3.75;;;;;;;14.34;60.17;100952.00;7396656;19;20015;-69
2022/09/07 02:20:10;;;;;;;4.65;3.13;;;;;;;14.32;59.82;100954.72;7396570;19;20010;-69
2022/09/07 02:22:43;;;;;;;5.82;3.97;;;;;;;14.29;60.37;100952.19;7396552;19;20010;-70
2022/09/07 02:25:18;;;;;;;4.17;3.70;;;;;;;14.28;60.32;100960.13;7395158;19;20018;-70
2022/09/07 02:27:50;;;;;;;6.47;3.85;;;;;;;14.27;60.29;100955.81;7394399;19;20427;-69
2022/09/07 02:30:21;;;;;;;5.95;3.85;;;;;;;14.25;60.26;100962.91;7396013;19;20014;-69
2022/09/07 02:32:50;;;;;;;4.68;4.28;;;;;;;14.23;60.51;100959.44;7394367;19;20351;-68
2022/09/07 02:35:19;;;;;;;5.97;4.45;;;;;;;14.20;60.33;100952.47;7392491;19;20018;-69
2022/09/07 02:37:50;;;;;;;7.35;4.47;;;;;;;14.17;60.72;100945.53;7393858;19;20014;-68
2022/09/07 02:40:19;;;;;;;7.80;4.50;;;;;;;14.15;60.71;100950.03;7395054;19;20018;-69
2022/09/07 02:42:50;;;;;;;9.50;4.95;;;;;;;14.11;60.87;100935.19;7395524;19;20019;-68
2022/09/07 02:45:21;;;;;;;8.05;5.18;;;;;;;14.08;60.89;100939.69;7395526;19;20010;-68
2022/09/07 02:48:18;;;;;;;6.22;5.00;;;;;;;14.05;61.06;100929.25;7395156;19;20037;-69
2022/09/07 02:50:56;;;;;;;7.15;5.45;;;;;;;14.01;61.09;100925.84;7393228;19;20033;-68
2022/09/07 02:53:53;;;;;;;6.45;5.10;;;;;;;13.97;61.12;100932.16;7395662;19;20019;-69
2022/09/07 02:56:36;;;;;;;6.22;4.88;;;;;;;13.93;61.25;100936.66;7395099;19;20434;-69
2022/09/07 02:59:14;;;;;;;7.15;5.00;;;;;;;13.91;61.42;100942.91;7393034;19;20021;-68
2022/09/07 03:01:57;;;;;;;6.70;5.32;;;;;;;13.85;61.52;100936.91;7393595;19;20425;-69
2022/09/07 03:04:35;;;;;;;7.78;4.90;;;;;;;13.82;61.91;100939.63;7394540;19;20026;-69
2022/09/07 03:07:10;;;;;;;6.63;4.93;;;;;;;13.77;61.97;100936.28;7393140;19;20007;-68
2022/09/07 03:09:43;;;;;;;6.15;5.38;;;;;;;13.75;61.99;100938.13;7393482;19;20014;-69
2022/09/07 03:12:12;;;;;;;6.22;4.70;;;;;;;13.72;62.21;100938.22;7393139;19;20026;-69
2022/09/07 03:14:42;;;;;;;6.97;4.82;;;;;;;13.69;62.03;100938.31;7394669;19;20038;-68
2022/09/07 03:17:14;;;;;;;5.80;4.88;;;;;;;13.67;62.40;100937.50;7392681;19;20019;-69
2022/09/07 03:19:43;;;;;;;6.88;4.82;;;;;;;13.65;62.50;100937.56;7393904;19;20007;-69
2022/09/07 03:22:12;;;;;;;7.40;4.80;;;;;;;13.62;62.46;100937.66;7392766;19;20041;-69
2022/09/07 03:24:40;;;;;;;6.25;4.63;;;;;;;13.61;62.62;100929.78;7394304;19;20015;-68
2022/09/07 03:27:10;;;;;;;11.52;4.57;;;;;;;13.59;62.24;100936.88;7394380;19;20015;-68
2022/09/07 03:29:39;;;;;;;7.03;4.45;;;;;;;13.54;62.53;100923.00;7394998;19;20019;-69
2022/09/07 03:32:08;;;;;;;6.78;4.72;;;;;;;13.57;62.51;100929.00;7391992;19;20381;-69
2022/09/07 03:34:39;;;;;;;7.00;3.92;;;;;;;13.55;62.55;100914.16;7393704;19;20015;-69
2022/09/07 03:37:07;;;;;;;5.97;4.07;;;;;;;13.52;62.67;100923.00;7394122;19;20041;-68
2022/09/07 03:39:36;;;;;;;6.10;4.75;;;;;;;13.50;62.59;100925.72;7393061;19;20377;-68
2022/09/07 03:42:05;;;;;;;6.82;4.47;;;;;;;13.48;62.62;100922.28;7391465;19;20516;-69
2022/09/07 03:44:34;;;;;;;6.97;4.60;;;;;;;13.46;62.88;100910.91;7391408;19;20018;-69
2022/09/07 03:47:02;;;;;;;6.45;4.40;;;;;;;13.46;62.69;100910.06;7394560;19;20512;-68
2022/09/07 03:49:31;;;;;;;4.63;4.13;;;;;;;13.45;62.74;100901.28;7400844;19;20018;-68
2022/09/07 03:52:02;;;;;;;5.88;4.63;;;;;;;13.43;62.71;100910.97;7398651;19;20015;-68
2022/09/07 03:54:31;;;;;;;6.10;4.47;;;;;;;13.43;62.71;100904.88;7401195;19;20027;-68
2022/09/07 03:56:59;;;;;;;6.70;4.47;;;;;;;13.40;62.67;100908.47;7400582;19;20019;-69
2022/09/07 03:59:28;;;;;;;7.80;4.82;;;;;;;13.39;62.80;100901.47;7400254;19;20010;-68
2022/09/07 04:01:56;;;;;;;6.57;5.05;;;;;;;13.37;62.92;100905.94;7397681;19;20372;-68
2022/09/07 04:04:25;;;;;;;5.80;4.85;;;;;;;13.36;62.79;100906.81;7400099;19;20010;-68
2022/09/07 04:07:00;;;;;;;8.13;4.35;;;;;;;13.34;62.80;100905.97;7397122;19;20043;-68
2022/09/07 04:09:32;;;;;;;6.88;3.97;;;;;;;13.32;62.87;100913.06;7397135;19;20022;-68
2022/09/07 04:12:01;;;;;;;6.50;4.28;;;;;;;13.31;62.89;100911.34;7398282;19;20386;-68
2022/09/07 04:14:30;;;;;;;6.72;5.03;;;;;;;13.28;62.69;100917.59;7400097;19;20086;-68
2022/09/07 04:16:58;;;;;;;9.88;4.97;;;;;;;13.27;63.05;100923.75;7400417;19;20033;-68
2022/09/07 04:19:27;;;;;;;5.90;4.50;;;;;;;13.26;63.09;100918.53;7400143;19;20018;-68
2022/09/07 04:21:56;;;;;;;5.82;4.28;;;;;;;13.25;62.94;100920.28;7398173;19;20019;-68
2022/09/07 04:24:24;;;;;;;8.07;5.38;;;;;;;13.24;63.17;100922.97;7397477;19;20019;-68
2022/09/07 04:26:55;;;;;;;8.13;5.10;;;;;;;13.23;63.14;100918.63;7397153;19;20032;-68
2022/09/07 04:29:24;;;;;;;6.97;4.82;;;;;;;13.21;63.12;100913.41;7400341;19;20041;-68
2022/09/07 04:31:52;;;;;;;7.28;4.28;;;;;;;13.20;63.30;100911.66;7396650;19;20502;-68
2022/09/07 04:34:21;;;;;;;6.70;4.28;;;;;;;13.16;63.38;100908.25;7398874;19;20031;-69
2022/09/07 04:36:49;;;;;;;8.52;4.72;;;;;;;13.15;63.43;100906.53;7398956;19;20042;-68
2022/09/07 04:39:18;;;;;;;6.85;4.88;;;;;;;13.15;63.32;100905.66;7398111;19;20362;-68
2022/09/07 04:41:47;;;;;;;6.32;4.60;;;;;;;13.14;63.38;100904.81;7397573;19;20014;-69
2022/09/07 04:44:18;;;;;;;8.55;6.85;;;;;;;13.13;63.46;100900.47;7399282;19;20019;-68
2022/09/07 04:46:46;;;;;;;4.85;4.10;;;;;;;13.12;63.46;100895.25;7398878;19;20010;-69
2022/09/07 04:49:15;;;;;;;9.25;4.45;;;;;;;13.12;63.52;100896.09;7398329;19;20007;-68
2022/09/07 04:51:44;;;;;;;5.00;3.97;;;;;;;13.12;63.59;100885.56;7396475;19;20015;-69
2022/09/07 04:54:13;;;;;;;5.72;3.90;;;;;;;13.11;63.47;100882.97;7398152;19;20027;-69
2022/09/07 04:56:41;;;;;;;6.47;4.38;;;;;;;13.12;63.68;100880.28;7397414;19;20019;-68
2022/09/07 04:59:10;;;;;;;8.35;4.47;;;;;;;13.12;63.59;100885.56;7395468;19;20022;-68
2022/09/07 05:01:41;;;;;;;4.93;3.90;;;;;;;13.12;63.60;100880.28;7395742;19;20041;-68
2022/09/07 05:04:10;;;;;;;4.55;4.00;;;;;;;13.16;63.47;100873.16;7397128;19;20015;-68
2022/09/07 05:06:38;;;;;;;7.72;4.47;;;;;;;13.17;63.36;100870.47;7394545;19;20010;-68
2022/09/07 05:09:07;;;;;;;5.07;3.65;;;;;;;13.17;63.60;100865.19;7394456;19;20017;-68
2022/09/07 05:11:36;;;;;;;7.05;4.18;;;;;;;13.20;63.52;100870.41;7395041;19;20021;-69
2022/09/07 05:14:05;;;;;;;6.15;3.80;;;;;;;13.22;63.67;100858.91;7397804;19;20029;-69
2022/09/07 05:16:34;;;;;;;8.90;3.97;;;;;;;13.24;63.58;100867.66;7397264;19;20092;-69
2022/09/07 05:19:06;;;;;;;7.75;3.53;;;;;;;13.27;63.63;100863.16;7397257;19;20045;-68
2022/09/07 05:21:36;;;;;;;4.75;3.30;;;;;;;13.30;63.58;100864.81;7395467;19;20046;-68
2022/09/07 05:24:06;;;;;;;6.47;3.88;;;;;;;13.31;63.46;100867.41;7395719;19;20011;-68
2022/09/07 05:26:38;;;;;;;9.52;4.07;;;;;;;13.33;63.60;100857.69;7395888;19;20484;-68
2022/09/07 05:29:13;;;;;;;6.25;3.78;;;;;;;13.38;63.54;100861.97;7397279;19;20066;-68
2022/09/07 05:31:41;;;;;;;6.00;3.22;;;;;;;13.40;63.18;100866.28;7396556;19;20018;-69
2022/09/07 05:34:13;;;;;;;8.40;3.67;;;;;;;13.42;63.35;100875.03;7396257;19;20485;-69
2022/09/07 05:36:43;;;;;;;4.80;3.20;;;;;;;13.44;63.21;100867.91;7397767;19;20049;-68
2022/09/07 05:39:11;;;;;;;5.43;3.35;;;;;;;13.50;63.23;100873.00;7396829;19;20505;-68
2022/09/07 05:41:40;;;;;;;7.45;4.72;;;;;;;13.54;63.23;100872.91;7395173;19;20022;-68
2022/09/07 05:44:09;;;;;;;6.15;3.90;;;;;;;13.59;63.19;100884.16;7393979;19;20014;-69
2022/09/07 05:46:37;;;;;;;4.53;3.30;;;;;;;13.62;63.18;100882.28;7395803;19;20480;-68
2022/09/07 05:49:06;;;;;;;8.10;3.70;;;;;;;13.67;63.06;100883.00;7393793;19;20011;-68
2022/09/07 05:51:38;;;;;;;9.13;3.60;;;;;;;13.72;62.95;100874.06;7394708;19;20019;-68
2022/09/07 05:54:06;;;;;;;5.93;3.53;;;;;;;13.76;63.07;100879.22;7394169;19;20018;-68
2022/09/07 05:56:36;;;;;;;4.30;3.58;;;;;;;13.81;63.00;100869.38;7396067;19;20049;-68
2022/09/07 05:59:05;;;;;;;8.05;3.60;;;;;;;13.85;62.68;100870.97;7395227;19;20437;-68
2022/09/07 06:01:34;;;;;;;4.75;3.88;;;;;;;13.94;63.10;100874.22;7393726;19;20014;-68
2022/09/07 06:04:03;;;;;;;6.65;3.33;;;;;;;14.02;62.56;100880.09;7393432;19;20019;-68
2022/09/07 06:06:32;;;;;;;4.68;3.17;;;;;;;14.08;62.74;100881.66;7394201;19;20011;-68
2022/09/07 06:09:03;;;;;;;9.18;3.65;;;;;;;14.14;62.51;100879.69;7393820;19;20011;-68
2022/09/07 06:11:31;;;;;;;6.65;4.10;;;;;;;14.22;62.38;100875.94;7393788;19;20033;-68
2022/09/07 06:14:00;;;;;;;6.00;3.55;;;;;;;14.27;62.38;100874.84;7393265;19;20024;-68
2022/09/07 06:16:28;;;;;;;9.13;3.88;;;;;;;14.33;62.04;100882.53;7394295;19;20014;-67
2022/09/07 06:18:57;;;;;;;6.57;4.10;;;;;;;14.40;62.11;100880.53;7395414;19;20370;-69
2022/09/07 06:21:26;;;;;;;6.50;3.70;;;;;;;14.47;62.06;100876.78;7394444;19;20018;-68
2022/09/07 06:23:54;;;;;;;5.95;3.33;;;;;;;14.56;62.01;100864.16;7395554;19;20139;-69
2022/09/07 06:26:26;;;;;;;6.22;3.28;;;;;;;14.65;62.09;100862.06;7394683;19;20022;-68
2022/09/07 06:28:54;;;;;;;10.10;5.18;;;;;;;14.75;61.86;100861.75;7393462;19;20382;-67
2022/09/07 06:31:27;;;;;;;5.18;3.83;;;;;;;14.87;61.75;100865.69;7393568;19;20037;-68
2022/09/07 06:33:57;;;;;;;8.30;4.00;;;;;;;14.96;61.66;100862.69;7395414;19;20033;-68
2022/09/07 06:36:28;;;;;;;8.70;3.92;;;;;;;15.07;61.44;100865.78;7395594;19;20101;-68
2022/09/07 06:39:00;;;;;;;8.40;4.13;;;;;;;15.19;61.16;100866.22;7393391;19;20022;-69
2022/09/07 06:41:33;;;;;;;10.27;4.22;;;;;;;15.29;61.27;100878.16;7393417;19;20021;-69
2022/09/07 06:44:02;;;;;;;10.55;6.30;;;;;;;15.39;60.90;100876.91;7395554;19;20014;-69
2022/09/07 06:46:31;;;;;;;7.20;4.72;;;;;;;15.51;60.88;100874.69;7395344;19;20019;-68
2022/09/07 06:48:59;;;;;;;6.03;4.00;;;;;;;15.61;60.91;100868.09;7395829;19;20085;-68
2022/09/07 06:51:28;;;;;;;7.43;3.50;;;;;;;15.70;60.69;100854.47;7393197;19;20485;-68
2022/09/07 06:54:00;;;;;;;7.40;3.83;;;;;;;15.77;60.64;100837.44;7393142;19;20011;-69
2022/09/07 06:56:31;;;;;;;6.47;4.38;;;;;;;15.85;60.38;100844.22;7394362;19;20011;-71
2022/09/07 06:59:00;;;;;;;7.68;4.18;;;;;;;15.89;60.55;100845.81;7392877;19;20023;-68
2022/09/07 07:01:29;;;;;;;10.15;4.85;;;;;;;15.94;60.57;100847.31;7393785;19;20018;-68
2022/09/07 07:03:58;;;;;;;7.90;4.20;;;;;;;15.96;60.18;100849.91;7394572;19;20485;-68
2022/09/07 07:06:34;;;;;;;6.60;3.80;;;;;;;16.02;60.32;100852.28;7393803;19;20384;-69
2022/09/07 07:09:03;;;;;;;6.05;4.05;;;;;;;16.04;60.28;100855.75;7395102;19;20014;-68
2022/09/07 07:11:35;;;;;;;6.32;3.95;;;;;;;16.05;60.07;100846.88;7393509;19;20212;-68
2022/09/07 07:14:04;;;;;;;4.32;3.40;;;;;;;16.07;60.51;100850.31;7393076;19;20014;-68
2022/09/07 07:16:33;;;;;;;5.53;3.70;;;;;;;16.09;60.51;100852.91;7394193;19;20015;-68
2022/09/07 07:19:02;;;;;;;7.13;3.78;;;;;;;16.10;60.44;100850.19;7393980;19;20023;-69
2022/09/07 07:21:30;;;;;;;8.77;3.83;;;;;;;16.12;60.14;100843.06;7397314;19;20502;-68
2022/09/07 07:23:59;;;;;;;5.32;3.50;;;;;;;16.17;60.17;100855.22;7399222;19;20104;-67
2022/09/07 07:26:28;;;;;;;8.98;3.90;;;;;;;16.18;60.07;100841.91;7405907;19;20018;-68
2022/09/07 07:28:59;;;;;;;7.43;4.38;;;;;;;16.22;60.27;100850.59;7402229;19;20025;-67
2022/09/07 07:31:28;;;;;;;8.52;3.95;;;;;;;16.25;60.04;100834.56;7399491;19;20014;-69
2022/09/07 07:33:57;;;;;;;5.72;3.83;;;;;;;16.27;60.05;100840.66;7398566;19;20516;-68
2022/09/07 07:36:27;;;;;;;5.03;3.53;;;;;;;16.29;60.29;100841.44;7398153;19;20015;-68
2022/09/07 07:38:57;;;;;;;5.93;3.80;;;;;;;16.34;60.19;100826.22;7402455;19;20018;-69
2022/09/07 07:41:30;;;;;;;8.60;4.47;;;;;;;16.38;59.99;100822.50;7399346;19;20015;-69
2022/09/07 07:44:02;;;;;;;6.00;4.60;;;;;;;16.44;60.32;100831.94;7401319;19;20014;-69
2022/09/07 07:46:32;;;;;;;6.40;4.18;;;;;;;16.50;60.08;100847.56;7399829;19;20023;-69
2022/09/07 07:49:01;;;;;;;6.88;4.00;;;;;;;16.54;60.15;100843.88;7401281;19;20382;-69
2022/09/07 07:51:29;;;;;;;7.82;4.55;;;;;;;16.60;60.38;100837.41;7397967;19;20014;-69
2022/09/07 07:53:58;;;;;;;11.68;4.85;;;;;;;16.67;60.15;100832.69;7398605;19;20035;-69
2022/09/07 07:56:26;;;;;;;7.28;4.03;;;;;;;16.74;60.17;100834.13;7400788;19;20015;-69
2022/09/07 07:58:55;;;;;;;6.40;4.43;;;;;;;16.81;60.13;100832.06;7399977;19;20006;-69
2022/09/07 08:01:26;;;;;;;6.55;3.95;;;;;;;16.87;60.29;100829.13;7397524;19;20019;-69
2022/09/07 08:03:55;;;;;;;11.40;5.47;;;;;;;16.94;60.24;100828.78;7400536;19;20019;-69
2022/09/07 08:06:23;;;;;;;9.07;4.35;;;;;;;17.01;60.13;100823.19;7399762;19;20010;-69
2022/09/07 08:08:52;;;;;;;7.70;4.55;;;;;;;17.07;60.17;100815.84;7400537;19;20030;-69
2022/09/07 08:11:22;;;;;;;7.28;4.45;;;;;;;17.15;60.21;100819.88;7398644;19;20019;-68
2022/09/07 08:13:53;;;;;;;9.15;4.75;;;;;;;17.22;60.19;100823.97;7398224;19;20090;-69
2022/09/07 08:16:22;;;;;;;7.88;4.40;;;;;;;17.29;60.27;100820.09;7400258;19;20037;-68
2022/09/07 08:18:53;;;;;;;5.55;4.28;;;;;;;17.36;60.61;100818.88;7399619;19;20022;-69
2022/09/07 08:21:26;;;;;;;4.85;4.40;;;;;;;17.45;60.38;100816.69;7397467;19;20023;-70
2022/09/07 08:23:54;;;;;;;7.10;4.95;;;;;;;17.52;60.26;100818.09;7398485;19;20014;-70
2022/09/07 08:26:23;;;;;;;6.07;4.47;;;;;;;17.61;60.35;100807.03;7399988;19;20074;-70
2022/09/07 08:28:51;;;;;;;8.43;4.95;;;;;;;17.69;60.42;100818.13;7396575;19;20018;-70
2022/09/07 08:31:20;;;;;;;7.97;5.53;;;;;;;17.80;60.38;100819.38;7397897;19;20069;-69
2022/09/07 08:33:48;;;;;;;7.32;4.68;;;;;;;17.89;60.55;100821.53;7395982;19;20014;-69
2022/09/07 08:36:22;;;;;;;8.40;5.10;;;;;;;17.98;60.29;100818.44;7399277;19;20032;-69
2022/09/07 08:38:50;;;;;;;5.75;5.20;;;;;;;18.05;59.96;100811.03;7399426;19;20085;-69
2022/09/07 08:41:36;;;;;;;9.73;6.00;;;;;;;18.19;60.22;100815.63;7396608;19;20103;-70
2022/09/07 08:44:08;;;;;;;6.25;5.35;;;;;;;18.27;60.24;100810.75;7399507;19;20014;-70
2022/09/07 08:46:42;;;;;;;9.10;5.40;;;;;;;18.39;59.63;100810.09;7399599;19;20023;-70
2022/09/07 08:49:21;;;;;;;6.57;5.40;;;;;;;18.50;59.64;100806.88;7399611;19;20078;-70
2022/09/07 08:51:56;;;;;;;9.93;5.20;;;;;;;18.63;59.57;100816.84;7397453;19;20113;-69
2022/09/07 08:54:25;;;;;;;7.18;5.82;;;;;;;18.73;59.41;100810.09;7396181;19;20098;-70
2022/09/07 08:56:55;;;;;;;9.23;5.88;;;;;;;18.84;59.19;100818.31;7399262;19;20021;-70
2022/09/07 08:59:29;;;;;;;6.97;5.63;;;;;;;18.94;59.21;100816.03;7398887;19;20014;-70
2022/09/07 09:01:57;;;;;;;;;;;;;;;19.03;59.14;100814.66;7397078;19;20026;-70
2022/09/07 09:04:28;;;;;;;9.25;5.82;;;;;;;19.14;58.85;100825.53;7398159;19;20293;-69
2022/09/07 09:07:09;;;;;;;8.75;6.45;;;;;;;19.27;58.44;100830.16;7395311;19;20493;-69
2022/09/07 09:09:59;;;;;;;7.18;5.82;;;;;;;19.39;58.43;100833.94;7395918;19;20078;-69
2022/09/07 09:12:34;;;;;;;13.63;7.05;;;;;;;19.48;58.59;100839.56;7395971;19;20025;-69
2022/09/07 09:15:11;;;;;;;7.03;5.88;;;;;;;19.57;58.11;100835.53;7395385;19;20006;-69
2022/09/07 09:17:45;;;;;;;7.90;5.80;;;;;;;19.67;58.20;100827.88;7398296;19;20014;-69
2022/09/07 09:20:24;;;;;;;7.97;5.88;;;;;;;19.76;57.93;100822.00;7397513;19;20086;-69
2022/09/07 09:23:02;;;;;;;10.52;5.93;;;;;;;19.86;58.03;100807.22;7396060;19;20079;-68
2022/09/07 09:25:40;;;;;;;10.73;5.75;;;;;;;19.97;57.92;100816.38;7398213;19;20031;-71
2022/09/07 09:28:13;;;;;;;8.45;6.15;;;;;;;20.08;58.00;100815.72;7398084;19;20154;-69
2022/09/07 09:30:41;;;;;;;8.32;6.43;;;;;;;20.19;57.43;100802.59;7396840;19;20022;-70
2022/09/07 09:33:22;;;;;;;7.72;5.72;;;;;;;20.32;57.51;100803.56;7395993;19;20549;-71
2022/09/07 09:35:52;;;;;;;7.03;6.03;;;;;;;20.48;57.03;100811.44;7397433;19;20010;-70
2022/09/07 09:38:38;;;;;;;8.40;5.93;;;;;;;20.62;57.00;100807.91;7396534;19;20086;-69
2022/09/07 09:41:08;;;;;;;6.82;5.28;;;;;;;20.76;56.38;100808.91;7393393;19;20489;-69
2022/09/07 09:43:42;;;;;;;12.15;6.95;;;;;;;20.91;56.76;100807.06;7394565;19;20070;-70
2022/09/07 09:46:22;;;;;;;8.02;6.55;;;;;;;21.04;56.23;100802.66;7396525;19;20035;-70
2022/09/07 09:48:56;;;;;;;6.60;5.32;;;;;;;21.16;56.04;100804.50;7397576;19;20022;-70
2022/09/07 09:51:26;;;;;;;9.40;5.72;;;;;;;21.26;55.68;100795.91;7395514;19;20100;-70
2022/09/07 09:53:59;;;;;;;7.55;6.13;;;;;;;21.40;55.41;100803.84;7396903;19;20393;-69
2022/09/07 09:56:38;;;;;;;9.57;6.63;;;;;;;21.49;55.10;100800.56;7394209;19;20481;-69
2022/09/07 09:59:26;;;;;;;11.05;6.65;;;;;;;21.58;55.30;100800.94;7396127;19;20087;-70
2022/09/07 10:01:55;;;;;;;12.63;7.95;;;;;;;21.64;54.70;100796.03;7396316;19;20030;-70
2022/09/07 10:04:32;;;;;;;9.88;7.68;;;;;;;21.71;55.09;100800.97;7395705;19;20415;-69
2022/09/07 10:07:09;;;;;;;14.75;9.45;;;;;;;21.78;54.77;100791.59;7395382;19;20018;-70
2022/09/07 10:09:42;;;;;;;11.60;8.23;;;;;;;21.82;54.84;100781.56;7395775;19;20493;-69
2022/09/07 10:12:27;;;;;;;17.70;11.48;;;;;;;21.85;54.46;100779.53;7394575;19;20421;-69
2022/09/07 10:14:56;;;;;;;15.55;9.23;;;;;;;21.89;54.34;100777.50;7394265;19;20090;-69
2022/09/07 10:17:31;;;;;;;10.23;7.47;;;;;;;21.92;54.58;100772.78;7395603;19;20015;-69
2022/09/07 10:20:03;;;;;;;10.75;7.85;;;;;;;21.94;54.75;100767.38;7395919;19;20026;-70
2022/09/07 10:22:37;;;;;;;9.43;6.88;;;;;;;21.96;54.62;100765.41;7393587;19;20014;-69
2022/09/07 10:25:35;;;;;;;9.40;7.07;;;;;;;21.97;54.79;100767.97;7395797;19;20022;-70
2022/09/07 10:28:08;;;;;;;8.30;6.50;;;;;;;22.00;54.71;100771.41;7395332;19;20011;-70
2022/09/07 10:30:47;;;;;;;9.88;7.30;;;;;;;22.04;54.75;100778.22;7395750;19;20022;-70
2022/09/07 10:33:21;;;;;;;9.07;6.20;;;;;;;22.08;55.22;100771.75;7393703;19;20090;-70
2022/09/07 10:35:55;;;;;;;7.32;5.90;;;;;;;22.12;55.21;100770.56;7394214;19;20081;-70
2022/09/07 10:38:24;;;;;;;7.13;6.13;;;;;;;22.20;54.70;100762.84;7394210;19;20070;-70
2022/09/07 10:41:03;;;;;;;9.30;6.35;;;;;;;22.27;54.78;100763.28;7393969;19;20025;-69
2022/09/07 10:43:44;;;;;;;10.27;7.15;;;;;;;22.34;54.80;100750.31;7394432;19;20506;-70
2022/09/07 10:46:30;;;;;;;10.07;6.85;;;;;;;22.42;54.76;100751.53;7394013;19;20011;-70
2022/09/07 10:49:12;;;;;;;12.75;6.72;;;;;;;22.55;54.67;100756.00;7395193;19;20022;-70
2022/09/07 10:51:50;;;;;;;8.13;5.93;;;;;;;22.61;54.45;100748.38;7393496;19;20355;-70
2022/09/07 10:54:37;;;;;;;8.80;6.28;;;;;;;22.74;54.10;100752.84;7395689;19;20096;-69
2022/09/07 10:57:28;;;;;;;7.43;6.57;;;;;;;22.82;53.56;100753.09;7394198;19;20014;-70
2022/09/07 11:00:04;;;;;;;8.30;5.75;;;;;;;22.91;53.96;100756.94;7394247;19;20094;-70
2022/09/07 11:02:47;;;;;;;10.82;7.20;;;;;;;23.01;53.51;100749.94;7391665;19;20017;-69
2022/09/07 11:05:28;;;;;;;6.65;5.95;;;;;;;23.13;53.79;100753.53;7392826;19;20410;-69
2022/09/07 11:08:09;;;;;;;9.35;7.10;;;;;;;23.22;53.58;100752.84;7392456;19;20070;-70
2022/09/07 11:10:44;;;;;;;11.57;6.32;;;;;;;23.35;53.47;100752.78;7393199;19;20074;-70
2022/09/07 11:13:21;;;;;;;13.20;6.25;;;;;;;23.50;53.20;100753.44;7393583;19;20018;-70
2022/09/07 11:15:54;;;;;;;12.63;6.28;;;;;;;23.65;52.68;100748.75;7391267;19;20022;-69
2022/09/07 11:18:26;;;;;;;;;;;;;;;23.79;52.44;100758.38;7393918;19;20019;-70
2022/09/07 11:20:57;;;;;;;9.20;6.50;;;;;;;23.90;52.42;100744.16;7391782;19;19936;-71
2022/09/07 11:23:33;;;;;;;9.50;6.40;;;;;;;24.06;51.73;100738.47;7390697;19;20082;-70
2022/09/07 11:26:10;;;;;;;10.98;5.70;;;;;;;24.17;51.68;100741.16;7393714;19;20018;-70
2022/09/07 11:28:47;;;;;;;7.50;5.80;;;;;;;24.29;51.02;100739.34;7392661;19;20021;-70
2022/09/07 11:31:27;;;;;;;7.45;6.65;;;;;;;24.39;50.89;100742.97;7391138;19;20014;-70
2022/09/07 11:34:01;;;;;;;8.18;5.95;;;;;;;24.50;50.55;100743.94;7392333;19;20082;-70
2022/09/07 11:36:36;;;;;;;12.13;6.70;;;;;;;24.60;50.14;100736.00;7393362;19;20044;-70
2022/09/07 11:39:10;;;;;;;6.68;6.00;;;;;;;24.65;50.24;100741.88;7390296;19;20182;-70
2022/09/07 11:41:43;;;;;;;8.55;6.40;;;;;;;24.70;49.61;100737.00;7389515;19;20019;-69
2022/09/07 11:44:19;;;;;;;;;;;;;;;24.72;50.07;100733.19;7392474;19;20018;-70
2022/09/07 11:46:51;;;;;;;8.07;6.18;;;;;;;24.76;50.24;100731.13;7392606;19;19990;-70
2022/09/07 11:49:23;;;;;;;12.32;7.70;;;;;;;24.79;49.71;100727.34;7394213;19;20035;-69